EGFF Airport Information

Runway Information
Runway 12 Length 7723 ft width 148 ft Elevation 205 ft Threshold 797 ft Heading 117
Runway 30 Length 7723 ft Width 148 ft Elevation 213 ft Threshold 551 ft Heading 297
Airport Frequencies
Type APP Name Cardiff Ra Frequency 125.85 MHZ
Type ATIS Name ATIS Frequency 132.475 MHZ
Type TWR Name Cardiff Tw Frequency 133.1 MHZ
Type APP Name Cardiff Ap Frequency 119.15 MHZ
Type Radar Name Frequency 133.6 MHZ
Airport Navaids
Airport Weather Information & NOTAM
ADDS - METARS form results

(1804 UTC 07 December 2022)
Data provider http://aviationweather.gov/metar/data/
 
METAR text: EGFF 071750Z AUTO 01004KT 9999 NCD 02/M01 Q1020
Conditions at: EGFF (CARDIFF-WALES AR, GB) observed 1750 UTC 07 December 2022
Temperature: 2.0°C (36°F)
Dewpoint: -1.0°C (30°F) [RH = 80%]
Pressure (altimeter): 30.12 inches Hg (1020.0 mb)
Winds: from the N (10 degrees) at 5 MPH (4 knots; 2.1 m/s)
Visibility: 6 or more miles (10+ km)
Ceiling: at least 12,000 feet AGL
Clouds: sky clear below 12,000 feet AGL
Weather: no significant weather observed at this time

METAR text: EGFF 071720Z AUTO 01005KT 9999 NCD 02/M01 Q1020
Conditions at: EGFF (CARDIFF-WALES AR, GB) observed 1720 UTC 07 December 2022
Temperature: 2.0°C (36°F)
Dewpoint: -1.0°C (30°F) [RH = 80%]
Pressure (altimeter): 30.12 inches Hg (1020.0 mb)
Winds: from the N (10 degrees) at 6 MPH (5 knots; 2.6 m/s)
Visibility: 6 or more miles (10+ km)
Ceiling: at least 12,000 feet AGL
Clouds: sky clear below 12,000 feet AGL
Weather: no significant weather observed at this time

Forecast for: EGFF (CARDIFF-WALES AR, GB)
Text: TAF EGFF 071702Z 0718/0818 01005KT 9999 FEW030
Forecast period: 1800 UTC 07 December 2022 to 1800 UTC 08 December 2022
Forecast type: FROM: standard forecast or significant change
Winds: from the N (10 degrees) at 6 MPH (5 knots; 2.6 m/s)
Visibility: 6 or more miles (10+ km)
Ceiling: at least 12,000 feet AGL
Clouds: few clouds at 3000 feet AGL
Weather: no significant weather forecast for this period
Text: PROB30 0802/0809 8000
Forecast period: 0200 to 0900 UTC 08 December 2022
Forecast type: PROBABLE: 30 percent likelihood of the following during this time
Visibility: 5 miles (8 km)
Ceiling: unknown
Clouds: missing
Weather: no significant weather forecast for this period